createdAt,value
2019-01-24T00:01:28.226Z,31.40
2019-01-24T00:03:57.960Z,34.53
2019-01-24T00:06:27.624Z,30.60
2019-01-24T00:08:57.277Z,32.57
2019-01-24T00:11:27.061Z,35.00
2019-01-24T00:13:56.743Z,34.37
2019-01-24T00:16:26.465Z,34.23
2019-01-24T00:18:56.221Z,33.83
2019-01-24T00:21:25.946Z,35.33
2019-01-24T00:23:55.618Z,33.07
2019-01-24T00:26:25.371Z,32.93
2019-01-24T00:28:55.015Z,37.40
2019-01-24T00:31:24.624Z,34.23
2019-01-24T00:33:54.273Z,35.83
2019-01-24T00:36:23.893Z,34.90
2019-01-24T00:38:53.563Z,33.03
2019-01-24T00:41:23.341Z,29.87
2019-01-24T00:43:53.073Z,33.73
2019-01-24T00:46:22.731Z,31.53
2019-01-24T00:48:52.416Z,33.70
2019-01-24T00:51:22.169Z,32.10
2019-01-24T00:53:51.805Z,31.73
2019-01-24T00:56:21.596Z,30.27
2019-01-24T00:58:51.335Z,31.60
2019-01-24T01:01:20.967Z,34.50
2019-01-24T01:03:50.606Z,34.17
2019-01-24T01:06:20.306Z,33.87
2019-01-24T01:08:49.948Z,33.37
2019-01-24T01:11:19.674Z,31.90
2019-01-24T01:13:49.337Z,34.23
2019-01-24T01:16:19.110Z,32.73
2019-01-24T01:18:48.877Z,31.87
2019-01-24T01:21:18.528Z,33.53
2019-01-24T01:23:48.280Z,37.00
2019-01-24T01:26:17.921Z,34.50
2019-01-24T01:28:47.502Z,37.73
2019-01-24T01:31:17.182Z,35.53
2019-01-24T01:33:46.936Z,34.20
2019-01-24T01:36:16.679Z,33.27
2019-01-24T01:38:46.313Z,35.77
2019-01-24T01:41:16.063Z,35.90
2019-01-24T01:43:45.726Z,32.50
2019-01-24T01:46:15.458Z,35.07
2019-01-24T01:48:45.139Z,33.37
2019-01-24T01:51:14.788Z,33.07
2019-01-24T01:53:44.485Z,35.23
2019-01-24T01:56:14.112Z,31.90
2019-01-24T01:58:43.848Z,33.40
2019-01-24T02:01:13.446Z,34.90
2019-01-24T02:03:43.053Z,34.80
2019-01-24T02:06:12.836Z,32.33
2019-01-24T02:08:42.601Z,33.60
2019-01-24T02:11:12.319Z,33.90
2019-01-24T02:13:41.957Z,33.77
2019-01-24T02:16:11.656Z,31.00
2019-01-24T02:18:41.303Z,33.23
2019-01-24T02:21:10.971Z,32.57
2019-01-24T02:23:40.620Z,32.30
2019-01-24T02:26:10.312Z,35.20
2019-01-24T02:28:39.978Z,36.23
2019-01-24T02:31:09.714Z,33.27
2019-01-24T02:33:39.341Z,33.90
2019-01-24T02:36:08.969Z,33.17
2019-01-24T02:38:38.619Z,34.17
2019-01-24T02:41:08.234Z,32.83
2019-01-24T02:43:38.016Z,33.23
2019-01-24T02:46:07.715Z,34.30
2019-01-24T02:48:37.359Z,35.17
2019-01-24T02:51:07.127Z,34.80
2019-01-24T02:53:36.875Z,35.77
2019-01-24T02:56:07.044Z,33.87
2019-01-24T02:58:36.795Z,33.70
2019-01-24T03:01:06.544Z,35.57
2019-01-24T03:03:36.243Z,35.97
2019-01-24T03:06:05.931Z,35.53
2019-01-24T03:08:35.611Z,36.13
2019-01-24T03:11:05.307Z,36.90
2019-01-24T03:13:35.075Z,35.53
2019-01-24T03:16:04.900Z,40.33
2019-01-24T03:18:35.563Z,35.80
2019-01-24T03:21:05.229Z,34.83
2019-01-24T03:23:34.854Z,38.37
2019-01-24T03:26:04.656Z,35.70
2019-01-24T03:28:34.394Z,36.77
2019-01-24T03:31:04.409Z,35.30
2019-01-24T03:33:34.168Z,36.20
2019-01-24T03:36:03.963Z,36.07
2019-01-24T03:38:33.596Z,37.67
2019-01-24T03:41:03.659Z,34.17
2019-01-24T03:43:33.269Z,35.47
2019-01-24T03:46:02.844Z,36.90
2019-01-24T03:48:32.470Z,35.38
2019-01-24T03:51:02.073Z,36.27
2019-01-24T03:53:31.861Z,36.40
2019-01-24T03:56:01.471Z,37.63
2019-01-24T03:58:31.071Z,37.77
2019-01-24T04:01:00.787Z,38.77
2019-01-24T04:03:30.555Z,36.27
2019-01-24T04:06:00.226Z,36.37
2019-01-24T04:08:29.910Z,38.53
2019-01-24T04:10:59.587Z,37.20
2019-01-24T04:13:29.213Z,38.60
2019-01-24T04:15:58.973Z,36.53
2019-01-24T04:18:28.616Z,37.13
2019-01-24T04:20:58.344Z,37.17
2019-01-24T04:23:27.953Z,36.90
2019-01-24T04:25:57.624Z,37.83
2019-01-24T04:28:27.279Z,37.20
2019-01-24T04:30:56.898Z,37.77
2019-01-24T04:33:26.642Z,37.40
2019-01-24T04:35:56.382Z,37.57
2019-01-24T04:38:26.147Z,36.73
2019-01-24T04:40:55.891Z,38.90
2019-01-24T04:43:25.614Z,38.77
2019-01-24T04:45:55.243Z,37.80
2019-01-24T04:48:24.969Z,38.03
2019-01-24T04:50:54.583Z,39.23
2019-01-24T04:53:24.371Z,35.70
2019-01-24T04:55:54.085Z,37.70
2019-01-24T04:58:23.655Z,39.37
2019-01-24T05:00:53.257Z,37.67
2019-01-24T05:03:22.980Z,37.58
2019-01-24T05:05:52.664Z,37.30
2019-01-24T05:08:22.418Z,36.53
2019-01-24T05:10:52.156Z,36.90
2019-01-24T05:13:21.870Z,36.17
2019-01-24T05:15:51.581Z,36.77
2019-01-24T05:18:21.282Z,35.33
2019-01-24T05:20:51.008Z,35.33
2019-01-24T05:23:20.652Z,38.07
2019-01-24T05:25:50.374Z,36.67
2019-01-24T05:28:20.103Z,36.33
2019-01-24T05:30:49.728Z,37.23
2019-01-24T05:33:19.441Z,36.00
2019-01-24T05:35:49.197Z,38.70
2019-01-24T05:38:18.844Z,36.80
2019-01-24T05:40:48.572Z,34.90
2019-01-24T05:43:18.173Z,37.87
2019-01-24T05:45:47.915Z,37.33
2019-01-24T05:48:17.494Z,37.00
2019-01-24T05:50:47.171Z,38.23
2019-01-24T05:53:16.814Z,36.63
2019-01-24T05:55:46.493Z,37.03
2019-01-24T05:58:16.098Z,32.43
2019-01-24T06:00:46.424Z,33.70
2019-01-24T06:03:16.122Z,31.93
2019-01-24T06:05:45.732Z,31.80
2019-01-24T06:08:15.499Z,28.73
2019-01-24T06:10:45.245Z,29.40
2019-01-24T06:13:14.976Z,27.70
2019-01-24T06:15:44.715Z,29.67
2019-01-24T06:18:14.483Z,29.13
2019-01-24T06:20:44.162Z,29.93
2019-01-24T06:23:13.923Z,28.23
2019-01-24T06:25:43.697Z,29.43
2019-01-24T06:28:13.459Z,28.97
2019-01-24T06:30:43.172Z,28.60
2019-01-24T06:33:13.035Z,31.50
2019-01-24T06:35:48.458Z,31.13
2019-01-24T06:38:14.243Z,28.43
2019-01-24T06:40:44.521Z,28.33
2019-01-24T06:43:14.118Z,30.97
2019-01-24T06:45:43.884Z,31.13
2019-01-24T06:48:13.586Z,30.03
2019-01-24T06:50:43.337Z,30.17
2019-01-24T06:53:13.075Z,30.20
2019-01-24T06:55:42.680Z,31.77
2019-01-24T06:58:12.420Z,29.70
2019-01-24T07:00:42.169Z,30.27
2019-01-24T07:03:11.792Z,30.57
2019-01-24T07:05:41.405Z,29.70
2019-01-24T07:08:11.120Z,29.57
2019-01-24T07:10:40.858Z,28.47
2019-01-24T07:13:10.559Z,29.77
2019-01-24T07:15:40.149Z,29.23
2019-01-24T07:18:10.387Z,51.17
2019-01-24T07:20:40.034Z,36.73
2019-01-24T07:23:09.768Z,32.77
2019-01-24T07:25:39.494Z,32.47
2019-01-24T07:28:09.151Z,33.77
2019-01-24T07:30:38.778Z,30.47
2019-01-24T07:33:08.441Z,30.80
2019-01-24T07:35:38.151Z,31.80
2019-01-24T07:38:07.865Z,32.13
2019-01-24T07:40:37.470Z,32.43
2019-01-24T07:43:07.219Z,33.07
2019-01-24T07:45:39.118Z,32.17
2019-01-24T07:48:08.937Z,32.47
2019-01-24T07:50:38.628Z,33.73
2019-01-24T07:53:08.647Z,33.63
2019-01-24T07:55:38.327Z,34.97
2019-01-24T07:58:08.004Z,32.53
2019-01-24T08:00:37.746Z,30.07
2019-01-24T08:03:07.450Z,31.10
2019-01-24T08:05:37.937Z,30.87
2019-01-24T08:08:07.822Z,26.27
2019-01-24T08:10:37.577Z,25.63
2019-01-24T08:13:07.434Z,26.13
2019-01-24T08:15:37.123Z,25.53
2019-01-24T08:18:07.230Z,26.43
2019-01-24T08:20:36.995Z,26.13
2019-01-24T08:23:06.673Z,25.47
2019-01-24T08:25:36.428Z,25.83
2019-01-24T08:28:06.079Z,26.70
2019-01-24T08:30:35.774Z,24.20
2019-01-24T08:33:05.719Z,24.60
2019-01-24T08:35:35.336Z,24.03
2019-01-24T08:38:05.642Z,25.47
2019-01-24T08:40:35.394Z,25.70
2019-01-24T08:43:05.147Z,24.83
2019-01-24T08:45:34.786Z,24.50
2019-01-24T08:48:04.800Z,24.53
2019-01-24T08:50:34.532Z,21.10
2019-01-24T08:53:04.545Z,19.27
2019-01-24T08:55:39.063Z,19.67
2019-01-24T08:58:09.478Z,20.00
2019-01-24T09:00:39.228Z,20.83
2019-01-24T09:03:08.854Z,20.90
2019-01-24T09:05:38.434Z,20.57
2019-01-24T09:08:08.235Z,20.50
2019-01-24T09:10:39.332Z,19.43
2019-01-24T09:13:09.454Z,20.27
2019-01-24T09:15:39.280Z,20.73
2019-01-24T09:18:09.515Z,20.70
2019-01-24T09:20:39.155Z,20.60
2019-01-24T09:23:08.843Z,20.93
2019-01-24T09:25:38.699Z,23.33
2019-01-24T09:28:14.623Z,21.37
2019-01-24T09:30:39.889Z,21.57
2019-01-24T09:33:09.536Z,21.33
2019-01-24T09:35:39.820Z,21.53
2019-01-24T09:38:11.965Z,21.33
2019-01-24T09:40:41.756Z,20.60
2019-01-24T09:43:11.520Z,22.00
2019-01-24T09:45:41.277Z,20.47
2019-01-24T09:48:11.092Z,22.43
2019-01-24T09:50:40.704Z,21.63
2019-01-24T09:53:10.379Z,21.10
2019-01-24T09:55:40.035Z,23.07
2019-01-24T09:58:09.689Z,22.60
2019-01-24T10:00:39.245Z,21.43
2019-01-24T10:03:09.088Z,23.40
2019-01-24T10:05:38.788Z,23.03
2019-01-24T10:08:08.577Z,22.77
2019-01-24T10:10:38.347Z,23.40
2019-01-24T10:13:07.933Z,24.43
2019-01-24T10:15:37.652Z,23.07
2019-01-24T10:18:07.399Z,24.00
2019-01-24T10:20:37.018Z,22.97
2019-01-24T10:23:06.628Z,23.07
2019-01-24T10:25:38.616Z,22.23
2019-01-24T10:28:09.153Z,24.60
2019-01-24T10:30:43.142Z,23.33
2019-01-24T10:33:10.188Z,25.17
2019-01-24T10:35:40.571Z,24.70
2019-01-24T10:38:10.234Z,23.57
2019-01-24T10:40:39.986Z,22.33
2019-01-24T10:43:09.637Z,24.00
2019-01-24T10:45:39.249Z,24.00
2019-01-24T10:48:08.899Z,24.07
2019-01-24T10:50:38.551Z,23.50
2019-01-24T10:53:08.269Z,24.10
2019-01-24T10:55:37.998Z,22.23
2019-01-24T10:58:08.082Z,23.50
2019-01-24T11:00:40.486Z,24.13
2019-01-24T11:03:12.668Z,23.47
2019-01-24T11:05:42.450Z,24.23
2019-01-24T11:08:12.215Z,23.43
2019-01-24T11:10:43.596Z,23.43
2019-01-24T11:13:13.296Z,23.23
2019-01-24T11:15:43.090Z,23.03
2019-01-24T11:18:12.694Z,22.20
2019-01-24T11:20:42.451Z,22.93
2019-01-24T11:23:12.175Z,22.30
2019-01-24T11:25:41.884Z,21.93
2019-01-24T11:28:11.635Z,23.33
2019-01-24T11:30:41.274Z,19.83
2019-01-24T11:33:11.400Z,20.83
2019-01-24T11:35:41.128Z,23.57
2019-01-24T11:38:10.863Z,24.23
2019-01-24T11:40:40.538Z,22.77
2019-01-24T11:43:10.206Z,23.37
2019-01-24T11:45:44.079Z,22.77
2019-01-24T11:48:13.849Z,21.13
2019-01-24T11:50:43.475Z,22.17
2019-01-24T11:53:14.139Z,22.40
2019-01-24T11:55:43.851Z,21.17
2019-01-24T11:58:13.561Z,21.37
2019-01-24T12:01:01.556Z,21.93
2019-01-24T12:03:31.252Z,22.97
2019-01-24T12:06:00.845Z,20.60
2019-01-24T12:08:30.563Z,26.20
2019-01-24T12:11:00.357Z,23.17
2019-01-24T12:13:30.615Z,22.90
2019-01-24T12:16:00.239Z,23.07
2019-01-24T12:18:29.854Z,23.63
2019-01-24T12:20:59.479Z,21.50
2019-01-24T12:23:29.191Z,22.53
2019-01-24T12:25:58.911Z,20.53
2019-01-24T12:28:28.717Z,23.33
2019-01-24T12:30:58.460Z,22.50
2019-01-24T12:33:28.106Z,23.40
2019-01-24T12:35:57.692Z,24.10
2019-01-24T12:38:27.318Z,24.60
2019-01-24T12:40:56.947Z,20.83
2019-01-24T12:43:26.612Z,21.67
2019-01-24T12:45:56.326Z,23.53
2019-01-24T12:48:26.070Z,21.97
2019-01-24T12:50:55.772Z,21.03
2019-01-24T12:53:25.420Z,23.10
2019-01-24T12:55:55.485Z,22.90
2019-01-24T12:58:25.239Z,23.50
2019-01-24T13:00:54.999Z,25.17
2019-01-24T13:03:24.732Z,24.97
2019-01-24T13:05:54.399Z,24.63
2019-01-24T13:08:24.032Z,25.20
2019-01-24T13:10:53.761Z,25.57
2019-01-24T13:13:23.401Z,24.77
2019-01-24T13:15:53.098Z,27.30
2019-01-24T13:18:22.718Z,24.27
2019-01-24T13:20:52.397Z,23.87
2019-01-24T13:23:22.150Z,25.30
2019-01-24T13:25:51.795Z,24.70
2019-01-24T13:28:21.538Z,24.40
2019-01-24T13:30:51.141Z,25.30
2019-01-24T13:33:20.892Z,23.90
2019-01-24T13:35:50.588Z,24.57
2019-01-24T13:38:20.234Z,23.20
2019-01-24T13:40:49.822Z,23.93
2019-01-24T13:43:19.611Z,22.30
2019-01-24T13:45:49.329Z,22.73
2019-01-24T13:48:18.916Z,23.60
2019-01-24T13:50:48.517Z,24.13
2019-01-24T13:53:18.291Z,22.37
2019-01-24T13:55:47.913Z,23.77
2019-01-24T13:58:17.543Z,22.83
2019-01-24T14:00:47.378Z,23.57
2019-01-24T14:03:46.778Z,22.60
2019-01-24T14:06:16.523Z,23.53
2019-01-24T14:08:46.249Z,23.13
2019-01-24T14:11:18.120Z,23.90
2019-01-24T14:13:48.264Z,23.57
2019-01-24T14:16:17.872Z,23.07
2019-01-24T14:18:47.550Z,21.83
2019-01-24T14:21:17.308Z,23.40
2019-01-24T14:23:46.915Z,23.53
2019-01-24T14:26:16.573Z,23.37
2019-01-24T14:28:46.195Z,23.60
2019-01-24T14:31:15.794Z,24.17
2019-01-24T14:33:45.455Z,24.07
2019-01-24T14:36:15.071Z,26.93
2019-01-24T14:38:44.834Z,29.97
2019-01-24T14:41:14.579Z,28.27
2019-01-24T14:43:44.214Z,29.27
2019-01-24T14:46:13.882Z,26.13
2019-01-24T14:48:43.623Z,26.93
2019-01-24T14:51:13.211Z,28.57
2019-01-24T14:53:42.917Z,24.73
2019-01-24T14:56:12.670Z,25.63
2019-01-24T14:58:42.366Z,25.77
2019-01-24T15:01:17.760Z,26.57
2019-01-24T15:03:47.362Z,28.47
2019-01-24T15:06:16.962Z,27.20
2019-01-24T15:08:46.600Z,26.80
2019-01-24T15:11:16.382Z,26.87
2019-01-24T15:13:46.078Z,27.33
2019-01-24T15:16:15.823Z,27.17
2019-01-24T15:18:45.448Z,27.17
2019-01-24T15:21:15.054Z,25.80
2019-01-24T15:23:44.810Z,26.40
2019-01-24T15:26:14.478Z,26.10
2019-01-24T15:28:44.235Z,27.03
2019-01-24T15:31:13.873Z,24.50
2019-01-24T15:33:43.626Z,26.60
2019-01-24T15:36:13.398Z,25.57
2019-01-24T15:38:43.084Z,25.63
2019-01-24T15:41:12.871Z,26.77
2019-01-24T15:43:42.620Z,26.00
2019-01-24T15:46:12.404Z,25.33
2019-01-24T15:48:42.755Z,26.97
2019-01-24T15:51:13.705Z,29.57
2019-01-24T15:53:43.400Z,26.03
2019-01-24T15:56:13.187Z,25.33
2019-01-24T15:58:42.839Z,26.50
2019-01-24T16:01:12.568Z,27.57
2019-01-24T16:03:42.325Z,25.33
2019-01-24T16:06:12.079Z,26.90
2019-01-24T16:08:41.679Z,25.63
2019-01-24T16:11:11.358Z,25.80
2019-01-24T16:13:41.310Z,25.80
2019-01-24T16:16:11.077Z,26.47
2019-01-24T16:18:40.891Z,29.60
2019-01-24T16:21:10.529Z,28.00
2019-01-24T16:23:40.154Z,26.13
2019-01-24T16:26:09.822Z,26.27
2019-01-24T16:28:39.607Z,25.87
2019-01-24T16:31:09.336Z,25.20
2019-01-24T16:33:38.985Z,27.07
2019-01-24T16:36:08.703Z,24.90
2019-01-24T16:38:38.409Z,24.97
2019-01-24T16:41:08.155Z,26.93
2019-01-24T16:43:37.819Z,26.67
2019-01-24T16:46:07.457Z,26.27
2019-01-24T16:48:37.101Z,25.30
2019-01-24T16:51:06.779Z,26.80
2019-01-24T16:53:36.393Z,26.77
2019-01-24T16:56:06.374Z,26.17
2019-01-24T16:58:36.260Z,27.07
2019-01-24T17:01:24.637Z,26.27
2019-01-24T17:03:54.259Z,28.17
2019-01-24T17:06:23.834Z,27.90
2019-01-24T17:08:55.247Z,27.57
2019-01-24T17:11:24.914Z,28.33
2019-01-24T17:13:54.612Z,27.10
2019-01-24T17:16:24.318Z,28.47
2019-01-24T17:18:53.953Z,26.40
2019-01-24T17:21:23.753Z,28.13
2019-01-24T17:23:53.465Z,26.60
2019-01-24T17:26:23.083Z,26.67
2019-01-24T17:28:52.707Z,28.53
2019-01-24T17:31:22.696Z,28.33
2019-01-24T17:33:52.509Z,29.00
2019-01-24T17:36:22.262Z,27.33
2019-01-24T17:38:52.158Z,29.70
2019-01-24T17:41:22.061Z,30.80
2019-01-24T17:43:51.691Z,77.67
2019-01-24T17:46:21.440Z,37.97
2019-01-24T17:48:51.030Z,32.10
2019-01-24T17:51:20.793Z,33.20
2019-01-24T17:53:50.547Z,32.17
2019-01-24T17:56:20.304Z,34.77
2019-01-24T17:58:50.097Z,34.03
2019-01-24T18:01:19.793Z,34.60
2019-01-24T18:03:49.455Z,35.00
2019-01-24T18:06:19.270Z,34.43
2019-01-24T18:08:49.466Z,33.90
2019-01-24T18:11:19.262Z,35.03
2019-01-24T18:13:49.160Z,33.87
2019-01-24T18:16:19.101Z,35.23
2019-01-24T18:18:48.841Z,36.13
2019-01-24T18:21:18.608Z,35.57
2019-01-24T18:23:48.372Z,36.47
2019-01-24T18:26:18.082Z,36.50
2019-01-24T18:28:47.951Z,34.43
2019-01-24T18:31:17.781Z,35.20
2019-01-24T18:33:47.787Z,33.17
2019-01-24T18:36:17.422Z,36.33
2019-01-24T18:38:47.541Z,35.80
2019-01-24T18:41:17.652Z,35.77
2019-01-24T18:43:47.871Z,36.93
2019-01-24T18:46:17.869Z,38.13
2019-01-24T18:48:47.489Z,38.23
2019-01-24T18:51:17.132Z,37.57
2019-01-24T18:53:47.129Z,38.47
2019-01-24T18:56:17.153Z,36.83
2019-01-24T18:58:46.923Z,35.73
2019-01-24T19:01:16.888Z,37.10
2019-01-24T19:03:46.660Z,35.47
2019-01-24T19:06:16.301Z,35.40
2019-01-24T19:08:46.204Z,36.00
2019-01-24T19:11:15.912Z,35.93
2019-01-24T19:13:45.663Z,37.67
2019-01-24T19:16:15.399Z,36.40
2019-01-24T19:18:45.045Z,35.63
2019-01-24T19:21:14.846Z,34.63
2019-01-24T19:23:44.517Z,36.03
2019-01-24T19:26:14.188Z,33.97
2019-01-24T19:28:43.890Z,35.73
2019-01-24T19:31:13.649Z,34.27
2019-01-24T19:33:43.424Z,31.83
2019-01-24T19:36:13.275Z,33.00
2019-01-24T19:38:42.921Z,32.30
2019-01-24T19:41:12.694Z,32.83
2019-01-24T19:43:42.427Z,35.83
2019-01-24T19:46:12.062Z,35.30
2019-01-24T19:48:41.710Z,35.27
2019-01-24T19:51:11.544Z,35.00
2019-01-24T19:53:41.404Z,35.20
2019-01-24T19:56:11.230Z,33.77
2019-01-24T19:58:40.919Z,35.57
2019-01-24T20:01:11.140Z,36.37
2019-01-24T20:03:41.092Z,35.20
2019-01-24T20:06:11.095Z,37.30
2019-01-24T20:08:41.205Z,35.70
2019-01-24T20:11:11.031Z,36.03
2019-01-24T20:13:42.769Z,36.00
2019-01-24T20:16:14.633Z,36.57
2019-01-24T20:18:44.495Z,36.50
2019-01-24T20:21:14.302Z,34.57
2019-01-24T20:23:43.947Z,36.27
2019-01-24T20:26:13.701Z,38.13
2019-01-24T20:28:43.376Z,35.87
2019-01-24T20:31:13.535Z,38.75
2019-01-24T20:33:43.477Z,38.53
2019-01-24T20:36:13.255Z,37.55
2019-01-24T20:38:43.150Z,40.47
2019-01-24T20:41:13.582Z,39.50
2019-01-24T20:43:46.557Z,37.60
2019-01-24T20:46:17.329Z,37.70
2019-01-24T20:48:47.601Z,38.53
2019-01-24T20:51:17.946Z,35.43
2019-01-24T20:53:47.613Z,36.53
2019-01-24T20:56:17.257Z,37.77
2019-01-24T20:58:47.029Z,37.57
2019-01-24T21:01:16.747Z,40.23
2019-01-24T21:03:46.383Z,37.13
2019-01-24T21:06:16.178Z,37.97
2019-01-24T21:08:46.148Z,41.17
2019-01-24T21:11:16.151Z,42.47
2019-01-24T21:13:48.356Z,41.47
2019-01-24T21:16:18.470Z,38.33
2019-01-24T21:18:48.281Z,36.27
2019-01-24T21:21:18.036Z,38.47
2019-01-24T21:23:47.663Z,37.87
2019-01-24T21:26:17.464Z,37.03
2019-01-24T21:28:47.169Z,37.50
2019-01-24T21:31:16.903Z,38.90
2019-01-24T21:33:46.538Z,39.37
2019-01-24T21:36:16.468Z,36.50
2019-01-24T21:38:46.136Z,36.80
2019-01-24T21:41:15.830Z,38.30
2019-01-24T21:43:45.632Z,39.60
2019-01-24T21:46:15.454Z,37.33
2019-01-24T21:48:45.304Z,38.33
2019-01-24T21:51:15.127Z,37.78
2019-01-24T21:53:45.002Z,36.83
2019-01-24T21:56:14.828Z,36.77
2019-01-24T21:58:44.503Z,36.63
2019-01-24T22:01:14.275Z,37.00
2019-01-24T22:03:44.025Z,37.55
2019-01-24T22:06:13.739Z,38.42
2019-01-24T22:08:43.562Z,37.40
2019-01-24T22:11:13.513Z,36.73
2019-01-24T22:13:43.364Z,37.23
2019-01-24T22:16:13.217Z,34.95
2019-01-24T22:18:43.000Z,36.87
2019-01-24T22:21:12.730Z,36.60
2019-01-24T22:23:42.377Z,36.00
2019-01-24T22:26:12.086Z,38.17
2019-01-24T22:28:41.854Z,36.13
2019-01-24T22:31:11.793Z,37.70
2019-01-24T22:33:41.433Z,36.00
2019-01-24T22:36:11.169Z,36.77
2019-01-24T22:38:40.943Z,38.95
2019-01-24T22:41:10.568Z,36.53
2019-01-24T22:43:40.260Z,37.25
2019-01-24T22:46:10.057Z,35.63
2019-01-24T22:48:39.870Z,35.23
2019-01-24T22:51:09.706Z,37.93
2019-01-24T22:53:39.545Z,41.08
2019-01-24T22:56:09.207Z,36.70
2019-01-24T22:58:38.864Z,34.50
2019-01-24T23:01:41.626Z,36.37
2019-01-24T23:04:16.996Z,35.28
2019-01-24T23:06:46.727Z,35.03
2019-01-24T23:09:16.492Z,34.25
2019-01-24T23:11:46.174Z,34.48
2019-01-24T23:14:15.986Z,33.38
2019-01-24T23:16:45.623Z,36.25
2019-01-24T23:19:15.549Z,35.48
2019-01-24T23:21:45.198Z,36.50
2019-01-24T23:24:14.964Z,35.45
2019-01-24T23:26:44.632Z,35.48
2019-01-24T23:29:14.305Z,35.80
2019-01-24T23:31:43.887Z,37.15
2019-01-24T23:34:13.671Z,35.80
2019-01-24T23:36:43.415Z,37.42
2019-01-24T23:39:12.973Z,36.53
2019-01-24T23:41:42.710Z,37.05
2019-01-24T23:44:12.453Z,35.13
2019-01-24T23:46:42.113Z,35.17
2019-01-24T23:49:11.780Z,35.17
2019-01-24T23:51:41.510Z,34.58
2019-01-24T23:54:11.237Z,34.27
2019-01-24T23:56:40.999Z,34.25
2019-01-24T23:59:10.805Z,35.43
